createdAt,value
2022-12-04T00:02:10.675Z,90.65
2022-12-04T00:04:37.321Z,81.10
2022-12-04T00:07:04.041Z,133.52
2022-12-04T00:09:30.572Z,85.95
2022-12-04T00:11:57.125Z,84.18
2022-12-04T00:14:24.071Z,95.80
2022-12-04T00:16:50.719Z,77.13
2022-12-04T00:19:17.727Z,68.57
2022-12-04T00:21:45.341Z,142.52
2022-12-04T00:24:12.738Z,60.15
2022-12-04T00:26:39.305Z,121.50
2022-12-04T00:29:05.973Z,41.72
2022-12-04T00:31:32.953Z,95.22
2022-12-04T00:34:00.780Z,78.03
2022-12-04T00:36:29.516Z,87.07
2022-12-04T00:38:56.359Z,181.32
2022-12-04T00:41:25.209Z,47.28
2022-12-04T00:43:52.444Z,59.63
2022-12-04T00:46:19.311Z,31.17
2022-12-04T00:48:46.316Z,51.47
2022-12-04T00:51:18.477Z,54.50
2022-12-04T00:53:45.369Z,50.33
2022-12-04T00:56:18.570Z,38.88
2022-12-04T00:58:45.812Z,40.38
2022-12-04T01:01:15.305Z,58.45
2022-12-04T01:03:43.406Z,95.80
2022-12-04T01:06:31.887Z,69.47
2022-12-04T01:09:00.795Z,40.15
2022-12-04T01:11:29.399Z,60.50
2022-12-04T01:13:56.667Z,32.13
2022-12-04T01:16:26.189Z,76.32
2022-12-04T01:18:52.801Z,47.13
2022-12-04T01:21:19.463Z,45.92
2022-12-04T01:23:46.155Z,32.95
2022-12-04T01:26:14.059Z,76.68
2022-12-04T01:28:40.666Z,45.95
2022-12-04T01:31:13.683Z,50.10
2022-12-04T01:33:41.321Z,49.65
2022-12-04T01:36:11.195Z,38.63
2022-12-04T01:38:38.245Z,46.53
2022-12-04T01:41:05.848Z,54.67
2022-12-04T01:43:35.747Z,43.85
2022-12-04T01:46:03.204Z,27.48
2022-12-04T01:48:35.090Z,31.55
2022-12-04T01:51:17.838Z,30.60
2022-12-04T01:53:51.066Z,26.25
2022-12-04T01:56:19.678Z,19.58
2022-12-04T01:58:51.377Z,22.55
2022-12-04T02:01:18.708Z,15.13
2022-12-04T02:03:45.386Z,15.82
2022-12-04T02:06:12.060Z,17.17
2022-12-04T02:08:39.111Z,15.68
2022-12-04T02:11:18.188Z,16.73
2022-12-04T02:14:15.423Z,17.65
2022-12-04T02:16:55.403Z,11.77
2022-12-04T02:19:45.153Z,16.73
2022-12-04T02:22:29.126Z,13.73
2022-12-04T02:25:11.237Z,21.85
2022-12-04T02:27:42.453Z,15.05
2022-12-04T02:30:13.346Z,15.25
2022-12-04T02:32:42.918Z,11.75
2022-12-04T02:35:17.003Z,15.98
2022-12-04T02:37:47.822Z,16.05
2022-12-04T02:40:23.246Z,12.43
2022-12-04T02:42:52.369Z,16.10
2022-12-04T02:45:27.063Z,15.38
2022-12-04T02:47:55.114Z,17.60
2022-12-04T02:50:24.290Z,17.63
2022-12-04T02:53:17.704Z,18.88
2022-12-04T02:55:50.839Z,18.90
2022-12-04T02:58:25.602Z,18.80
2022-12-04T03:00:54.558Z,21.30
2022-12-04T03:03:25.468Z,20.52
2022-12-04T03:05:59.574Z,20.05
2022-12-04T03:08:34.324Z,18.52
2022-12-04T03:11:01.802Z,20.63
2022-12-04T03:13:38.433Z,22.92
2022-12-04T03:16:13.314Z,26.20
2022-12-04T03:18:44.190Z,28.27
2022-12-04T03:21:16.398Z,35.28
2022-12-04T03:23:48.866Z,23.02
2022-12-04T03:26:42.260Z,30.58
2022-12-04T03:29:21.293Z,34.47
2022-12-04T03:32:00.850Z,67.63
2022-12-04T03:34:48.606Z,38.33
2022-12-04T03:37:19.926Z,33.85
2022-12-04T03:39:57.305Z,61.70
2022-12-04T03:42:35.912Z,33.72
2022-12-04T03:45:17.283Z,30.88
2022-12-04T03:47:54.347Z,26.33
2022-12-04T03:50:32.780Z,26.50
2022-12-04T03:53:16.696Z,25.08
2022-12-04T03:56:03.576Z,27.90
2022-12-04T03:58:32.938Z,29.35
2022-12-04T04:01:04.024Z,30.85
2022-12-04T04:03:37.048Z,24.83
2022-12-04T04:06:10.813Z,34.50
2022-12-04T04:11:28.921Z,24.58
2022-12-04T04:14:21.068Z,23.85
2022-12-04T04:17:13.932Z,27.88
2022-12-04T04:20:03.126Z,27.70
2022-12-04T04:22:51.630Z,22.67
2022-12-04T04:25:25.910Z,32.03
2022-12-04T04:27:58.250Z,31.60
2022-12-04T04:30:26.302Z,28.48
2022-12-04T04:33:16.195Z,36.83
2022-12-04T04:36:06.659Z,26.48
2022-12-04T04:39:02.154Z,31.25
2022-12-04T04:41:50.055Z,30.85
2022-12-04T04:44:46.536Z,33.15
2022-12-04T04:47:20.104Z,31.42
2022-12-04T04:49:49.278Z,37.13
2022-12-04T04:52:20.211Z,30.65
2022-12-04T04:54:47.561Z,28.25
2022-12-04T04:57:14.190Z,36.05
2022-12-04T04:59:40.752Z,39.80
2022-12-04T05:02:07.510Z,35.50
2022-12-04T05:04:34.102Z,36.85
2022-12-04T05:07:00.622Z,30.38
2022-12-04T05:09:27.169Z,30.17
2022-12-04T05:11:53.732Z,31.00
2022-12-04T05:14:20.292Z,30.98
2022-12-04T05:16:46.806Z,25.35
2022-12-04T05:19:31.713Z,34.03
2022-12-04T05:21:58.407Z,29.27
2022-12-04T05:24:24.949Z,27.75
2022-12-04T05:26:51.500Z,29.08
2022-12-04T05:29:18.033Z,28.58
2022-12-04T05:31:44.627Z,25.80
2022-12-04T05:34:11.216Z,30.60
2022-12-04T05:36:37.754Z,29.45
2022-12-04T05:39:04.461Z,27.40
2022-12-04T05:41:31.024Z,24.27
2022-12-04T05:43:57.600Z,27.85
2022-12-04T05:46:24.242Z,28.60
2022-12-04T05:48:50.873Z,28.73
2022-12-04T05:51:17.511Z,28.13
2022-12-04T05:53:44.128Z,31.50
2022-12-04T05:56:11.200Z,30.85
2022-12-04T05:58:38.827Z,26.30
2022-12-04T06:01:10.950Z,27.83
2022-12-04T06:03:37.608Z,32.92
2022-12-04T06:06:04.670Z,26.33
2022-12-04T06:08:32.299Z,26.25
2022-12-04T06:10:58.890Z,31.92
2022-12-04T06:13:25.448Z,24.10
2022-12-04T06:15:52.054Z,25.92
2022-12-04T06:18:18.585Z,33.53
2022-12-04T06:20:45.203Z,34.30
2022-12-04T06:23:11.817Z,34.58
2022-12-04T06:25:38.420Z,37.45
2022-12-04T06:28:05.036Z,34.78
2022-12-04T06:30:33.849Z,37.25
2022-12-04T06:33:00.375Z,29.05
2022-12-04T06:35:26.900Z,25.98
2022-12-04T06:37:53.437Z,29.83
2022-12-04T06:40:19.983Z,31.20
2022-12-04T06:42:46.499Z,26.08
2022-12-04T06:45:13.136Z,29.75
2022-12-04T06:47:39.683Z,30.10
2022-12-04T06:50:07.085Z,30.60
2022-12-04T06:52:34.280Z,26.42
2022-12-04T06:55:00.875Z,27.30
2022-12-04T06:57:27.476Z,24.85
2022-12-04T06:59:54.266Z,21.60
2022-12-04T07:02:21.082Z,35.42
2022-12-04T07:04:47.641Z,31.38
2022-12-04T07:07:14.240Z,31.08
2022-12-04T07:09:40.784Z,28.15
2022-12-04T07:12:07.455Z,37.83
2022-12-04T07:14:34.077Z,27.17
2022-12-04T07:17:00.686Z,48.15
2022-12-04T07:19:27.268Z,35.00
2022-12-04T07:21:53.888Z,28.15
2022-12-04T07:24:20.545Z,32.78
2022-12-04T07:26:47.308Z,35.45
2022-12-04T07:29:13.991Z,33.33
2022-12-04T07:31:40.837Z,26.83
2022-12-04T07:34:07.978Z,40.85
2022-12-04T07:36:34.517Z,25.85
2022-12-04T07:39:01.229Z,32.22
2022-12-04T07:41:27.777Z,31.10
2022-12-04T07:43:54.717Z,31.02
2022-12-04T07:46:24.505Z,25.05
2022-12-04T07:48:51.210Z,27.08
2022-12-04T07:51:23.036Z,41.70
2022-12-04T07:53:51.538Z,28.90
2022-12-04T07:56:19.170Z,34.75
2022-12-04T07:58:46.496Z,28.38
2022-12-04T08:01:19.053Z,31.02
2022-12-04T08:03:49.048Z,34.65
2022-12-04T08:06:18.230Z,24.05
2022-12-04T08:08:45.177Z,32.60
2022-12-04T08:11:14.642Z,28.63
2022-12-04T08:13:41.387Z,26.23
2022-12-04T08:16:10.040Z,29.08
2022-12-04T08:18:36.625Z,28.15
2022-12-04T08:21:14.763Z,32.72
2022-12-04T08:23:43.064Z,30.50
2022-12-04T08:26:10.611Z,33.65
2022-12-04T08:28:38.251Z,37.70
2022-12-04T08:31:07.651Z,34.45
2022-12-04T08:33:34.633Z,29.48
2022-12-04T08:36:01.566Z,33.45
2022-12-04T08:38:28.140Z,35.15
2022-12-04T08:40:54.676Z,34.88
2022-12-04T08:43:21.251Z,25.25
2022-12-04T08:46:05.396Z,29.98
2022-12-04T08:50:59.620Z,33.58
2022-12-04T08:53:27.549Z,27.95
2022-12-04T08:55:54.105Z,25.45
2022-12-04T08:58:20.670Z,32.67
2022-12-04T09:00:47.750Z,30.10
2022-12-04T09:03:16.829Z,38.05
2022-12-04T09:05:45.899Z,25.58
2022-12-04T09:08:14.092Z,27.05
2022-12-04T09:10:41.405Z,22.85
2022-12-04T09:13:08.298Z,22.77
2022-12-04T09:15:38.594Z,20.10
2022-12-04T09:18:05.228Z,29.15
2022-12-04T09:20:31.769Z,19.63
2022-12-04T09:23:05.422Z,22.08
2022-12-04T09:25:36.416Z,22.15
2022-12-04T09:28:03.110Z,26.83
2022-12-04T09:30:29.645Z,21.23
2022-12-04T09:32:56.326Z,22.58
2022-12-04T09:35:22.883Z,25.90
2022-12-04T09:37:49.391Z,25.75
2022-12-04T09:40:30.698Z,21.67
2022-12-04T09:43:06.713Z,53.92
2022-12-04T09:45:46.863Z,31.05
2022-12-04T09:48:16.696Z,24.98
2022-12-04T09:50:45.231Z,25.73
2022-12-04T09:53:27.614Z,25.88
2022-12-04T09:56:12.648Z,25.70
2022-12-04T09:58:45.382Z,17.90
2022-12-04T10:01:29.767Z,27.27
2022-12-04T10:04:01.182Z,20.88
2022-12-04T10:06:44.155Z,21.65
2022-12-04T10:09:29.749Z,24.02
2022-12-04T10:12:24.666Z,19.75
2022-12-04T10:15:03.764Z,19.35
2022-12-04T10:18:00.903Z,22.45
2022-12-04T10:21:15.128Z,19.13
2022-12-04T10:24:00.939Z,28.65
2022-12-04T10:26:36.772Z,18.38
2022-12-04T10:29:08.133Z,45.72
2022-12-04T10:31:37.758Z,28.73
2022-12-04T10:34:40.022Z,29.20
2022-12-04T10:37:14.663Z,40.15
2022-12-04T10:40:09.896Z,26.30
2022-12-04T10:42:38.476Z,70.78
2022-12-04T10:45:06.319Z,36.17
2022-12-04T10:47:34.323Z,31.88
2022-12-04T10:50:13.038Z,58.08
2022-12-04T10:52:39.574Z,31.50
2022-12-04T10:55:06.473Z,26.33
2022-12-04T10:57:39.515Z,31.05
2022-12-04T11:00:30.864Z,37.17
2022-12-04T11:03:03.306Z,35.38
2022-12-04T11:05:44.116Z,34.22
2022-12-04T11:08:26.467Z,20.15
2022-12-04T11:11:06.310Z,20.58
2022-12-04T11:13:33.161Z,26.05
2022-12-04T11:15:59.818Z,39.90
2022-12-04T11:18:31.966Z,31.08
2022-12-04T11:21:03.121Z,39.13
2022-12-04T11:23:33.696Z,32.40
2022-12-04T11:26:05.912Z,27.50
2022-12-04T11:28:41.615Z,32.85
2022-12-04T11:31:15.478Z,21.15
2022-12-04T11:33:48.219Z,19.03
2022-12-04T11:36:41.963Z,29.60
2022-12-04T11:39:18.905Z,21.88
2022-12-04T11:41:45.528Z,31.20
2022-12-04T11:44:30.331Z,19.92
2022-12-04T11:46:59.333Z,27.27
2022-12-04T11:49:28.130Z,27.83
2022-12-04T11:52:38.531Z,30.67
2022-12-04T11:55:17.868Z,23.17
2022-12-04T11:57:54.361Z,24.08
2022-12-04T12:00:22.800Z,34.92
2022-12-04T12:03:10.783Z,36.50
2022-12-04T12:05:55.734Z,29.08
2022-12-04T12:08:43.256Z,26.13
2022-12-04T12:11:30.871Z,30.83
2022-12-04T12:14:21.299Z,27.80
2022-12-04T12:17:21.787Z,32.92
2022-12-04T12:20:11.069Z,29.02
2022-12-04T12:23:01.924Z,26.15
2022-12-04T12:26:06.459Z,28.70
2022-12-04T12:29:00.404Z,24.75
2022-12-04T12:31:45.559Z,21.63
2022-12-04T12:34:18.770Z,35.97
2022-12-04T12:36:49.647Z,27.48
2022-12-04T12:39:24.960Z,41.97
2022-12-04T12:41:59.123Z,30.92
2022-12-04T12:44:34.755Z,24.83
2022-12-04T12:47:09.381Z,23.40
2022-12-04T12:49:46.236Z,23.83
2022-12-04T12:52:33.319Z,31.50
2022-12-04T12:55:14.255Z,26.40
2022-12-04T12:57:45.290Z,31.73
2022-12-04T13:00:18.107Z,21.10
2022-12-04T13:02:50.478Z,19.95
2022-12-04T13:05:23.357Z,28.38
2022-12-04T13:08:11.503Z,26.40
2022-12-04T13:10:49.387Z,29.02
2022-12-04T13:13:28.984Z,29.70
2022-12-04T13:16:03.208Z,18.35
2022-12-04T13:18:41.044Z,24.67
2022-12-04T13:21:14.042Z,32.33
2022-12-04T13:23:49.511Z,25.70
2022-12-04T13:26:18.762Z,25.38
2022-12-04T13:28:56.547Z,25.73
2022-12-04T13:32:23.866Z,22.88
2022-12-04T13:35:05.568Z,29.02
2022-12-04T13:37:47.908Z,33.97
2022-12-04T13:40:20.117Z,21.40
2022-12-04T13:42:46.784Z,25.48
2022-12-04T13:45:27.335Z,26.13
2022-12-04T13:48:00.388Z,22.90
2022-12-04T13:50:35.511Z,26.00
2022-12-04T13:53:02.237Z,22.48
2022-12-04T13:55:37.917Z,26.98
2022-12-04T13:58:31.550Z,17.42
2022-12-04T14:01:04.502Z,26.75
2022-12-04T14:03:48.448Z,23.80
2022-12-04T14:06:50.584Z,23.98
2022-12-04T14:09:25.920Z,18.85
2022-12-04T14:11:57.886Z,25.17
2022-12-04T14:14:26.700Z,19.85
2022-12-04T14:16:54.264Z,27.75
2022-12-04T14:19:32.464Z,22.30
2022-12-04T14:21:59.266Z,20.83
2022-12-04T14:24:37.763Z,20.00
2022-12-04T14:27:30.141Z,20.70
2022-12-04T14:29:58.766Z,17.60
2022-12-04T14:32:30.903Z,21.60
2022-12-04T14:34:58.539Z,23.23
2022-12-04T14:37:31.064Z,19.75
2022-12-04T14:39:59.387Z,24.25
2022-12-04T14:42:39.060Z,22.58
2022-12-04T14:45:20.329Z,25.17
2022-12-04T14:48:08.340Z,21.73
2022-12-04T14:51:04.609Z,20.35
2022-12-04T14:53:53.051Z,21.30
2022-12-04T14:56:26.369Z,22.55
2022-12-04T14:58:53.267Z,27.48
2022-12-04T15:01:29.510Z,21.80
2022-12-04T15:04:01.271Z,19.00
2022-12-04T15:06:30.962Z,20.30
2022-12-04T15:09:22.067Z,19.02
2022-12-04T15:12:10.681Z,19.75
2022-12-04T15:14:42.604Z,21.65
2022-12-04T15:17:11.359Z,15.35
2022-12-04T15:19:38.852Z,18.90
2022-12-04T15:22:11.723Z,17.45
2022-12-04T15:24:39.027Z,17.45
2022-12-04T15:27:07.067Z,16.38
2022-12-04T15:29:38.137Z,14.98
2022-12-04T15:32:12.010Z,13.68
2022-12-04T15:34:43.277Z,17.90
2022-12-04T15:37:21.629Z,19.88
2022-12-04T15:39:52.266Z,15.48
2022-12-04T15:42:22.178Z,16.77
2022-12-04T15:45:01.753Z,14.95
2022-12-04T15:47:31.397Z,19.73
2022-12-04T15:50:16.244Z,12.43
2022-12-04T15:52:57.682Z,13.93
2022-12-04T15:55:25.978Z,15.05
2022-12-04T15:58:00.405Z,12.43
2022-12-04T16:00:34.103Z,13.90
2022-12-04T16:03:01.194Z,15.05
2022-12-04T16:05:36.563Z,10.50
2022-12-04T16:08:29.195Z,13.15
2022-12-04T16:11:02.225Z,10.77
2022-12-04T16:13:37.463Z,13.23
2022-12-04T16:16:07.103Z,14.23
2022-12-04T16:18:34.193Z,12.13
2022-12-04T16:21:00.987Z,13.05
2022-12-04T16:23:27.839Z,12.27
2022-12-04T16:25:54.734Z,16.35
2022-12-04T16:28:21.447Z,10.82
2022-12-04T16:30:51.214Z,12.52
2022-12-04T16:33:17.895Z,11.20
2022-12-04T16:35:44.671Z,10.00
2022-12-04T16:38:16.654Z,12.75
2022-12-04T16:40:45.285Z,13.27
2022-12-04T16:43:14.908Z,11.98
2022-12-04T16:45:48.968Z,13.45
2022-12-04T16:48:15.713Z,12.45
2022-12-04T16:50:44.304Z,12.13
2022-12-04T16:53:19.060Z,11.05
2022-12-04T16:55:48.530Z,11.45
2022-12-04T16:58:16.067Z,13.77
2022-12-04T17:00:44.836Z,13.73
2022-12-04T17:03:21.982Z,11.68
2022-12-04T17:05:48.605Z,11.07
2022-12-04T17:08:15.265Z,13.93
2022-12-04T17:10:41.843Z,12.75
2022-12-04T17:13:08.391Z,12.65
2022-12-04T17:15:35.040Z,14.27
2022-12-04T17:18:04.811Z,13.88
2022-12-04T17:20:35.784Z,12.32
2022-12-04T17:23:02.319Z,12.73
2022-12-04T17:25:28.874Z,12.50
2022-12-04T17:27:55.451Z,12.82
2022-12-04T17:30:21.979Z,14.65
2022-12-04T17:32:49.284Z,13.32
2022-12-04T17:35:16.071Z,11.43
2022-12-04T17:37:42.646Z,13.18
2022-12-04T17:40:10.739Z,12.32
2022-12-04T17:42:37.296Z,14.18
2022-12-04T17:45:04.843Z,12.20
2022-12-04T17:47:31.450Z,11.60
2022-12-04T17:49:57.980Z,14.10
2022-12-04T17:52:24.561Z,13.23
2022-12-04T17:54:52.147Z,15.48
2022-12-04T17:57:19.243Z,14.15
2022-12-04T17:59:45.843Z,11.98
2022-12-04T18:02:13.169Z,15.20
2022-12-04T18:04:39.766Z,15.82
2022-12-04T18:07:06.875Z,12.38
2022-12-04T18:09:33.872Z,10.63
2022-12-04T18:12:01.673Z,10.63
2022-12-04T18:14:29.367Z,11.93
2022-12-04T18:16:57.614Z,17.48
2022-12-04T18:19:27.162Z,15.38
2022-12-04T18:21:54.983Z,14.30
2022-12-04T18:24:22.864Z,14.65
2022-12-04T18:26:51.014Z,18.23
2022-12-04T18:29:20.884Z,14.95
2022-12-04T18:31:47.964Z,19.80
2022-12-04T18:34:15.060Z,17.40
2022-12-04T18:36:42.282Z,17.92
2022-12-04T18:39:15.003Z,16.45
2022-12-04T18:41:41.819Z,17.65
2022-12-04T18:44:08.645Z,14.18
2022-12-04T18:46:35.667Z,14.02
2022-12-04T18:49:02.471Z,14.07
2022-12-04T18:51:30.226Z,13.10
2022-12-04T18:54:02.804Z,10.77
2022-12-04T18:56:30.207Z,11.55
2022-12-04T18:59:21.196Z,14.10
2022-12-04T19:01:50.323Z,13.93
2022-12-04T19:04:19.460Z,9.55
2022-12-04T19:06:50.335Z,12.38
2022-12-04T19:09:35.477Z,15.93
2022-12-04T19:12:08.722Z,11.63
2022-12-04T19:14:35.423Z,13.35
2022-12-04T19:17:02.014Z,12.13
2022-12-04T19:19:31.584Z,13.10
2022-12-04T19:21:59.136Z,12.88
2022-12-04T19:24:25.760Z,12.50
2022-12-04T19:26:53.810Z,12.10
2022-12-04T19:29:20.361Z,10.98
2022-12-04T19:31:47.009Z,12.57
2022-12-04T19:34:13.738Z,12.93
2022-12-04T19:36:41.270Z,13.35
2022-12-04T19:39:08.058Z,12.73
2022-12-04T19:41:35.314Z,14.27
2022-12-04T19:44:07.827Z,16.48
2022-12-04T19:46:41.352Z,12.98
2022-12-04T19:49:08.256Z,14.20
2022-12-04T19:51:38.155Z,13.80
2022-12-04T19:54:05.978Z,14.63
2022-12-04T19:56:34.415Z,14.93
2022-12-04T19:59:03.671Z,14.18
2022-12-04T20:01:32.347Z,14.48
2022-12-04T20:04:04.481Z,17.90
2022-12-04T20:06:35.219Z,14.23
2022-12-04T20:09:05.158Z,15.45
2022-12-04T20:11:32.747Z,16.38
2022-12-04T20:14:03.909Z,18.75
2022-12-04T20:16:32.431Z,18.30
2022-12-04T20:18:59.681Z,16.35
2022-12-04T20:21:30.351Z,12.40
2022-12-04T20:24:00.060Z,17.30
2022-12-04T20:26:31.478Z,20.50
2022-12-04T20:28:59.690Z,18.67
2022-12-04T20:31:34.333Z,18.67
2022-12-04T20:34:03.492Z,20.00
2022-12-04T20:36:31.356Z,12.65
2022-12-04T20:38:59.294Z,21.35
2022-12-04T20:41:27.846Z,16.48
2022-12-04T20:43:55.513Z,16.75
2022-12-04T20:46:25.694Z,14.68
2022-12-04T20:48:53.641Z,17.67
2022-12-04T20:51:40.400Z,15.70
2022-12-04T20:54:08.114Z,15.88
2022-12-04T20:56:36.959Z,16.30
2022-12-04T20:59:07.628Z,21.15
2022-12-04T21:01:34.988Z,16.17
2022-12-04T21:04:02.313Z,19.77
2022-12-04T21:06:34.789Z,19.67
2022-12-04T21:09:06.715Z,17.65
2022-12-04T21:11:36.935Z,14.10
2022-12-04T21:14:24.957Z,19.13
2022-12-04T21:16:51.838Z,16.35
2022-12-04T21:19:20.773Z,21.33
2022-12-04T21:21:47.384Z,19.58
2022-12-04T21:24:16.289Z,19.08
2022-12-04T21:26:43.373Z,13.90
2022-12-04T21:29:10.171Z,15.88
2022-12-04T21:31:37.369Z,17.40
2022-12-04T21:34:07.014Z,18.80
2022-12-04T21:36:34.212Z,17.70
2022-12-04T21:39:00.827Z,17.92
2022-12-04T21:41:46.289Z,20.83
2022-12-04T21:44:17.461Z,16.67
2022-12-04T21:46:45.202Z,16.25
2022-12-04T21:49:12.348Z,13.68
2022-12-04T21:54:27.209Z,15.15
2022-12-04T21:56:54.497Z,17.55
2022-12-04T21:59:21.001Z,15.05
2022-12-04T22:01:47.616Z,17.42
2022-12-04T22:04:14.316Z,12.75
2022-12-04T22:06:42.121Z,15.23
2022-12-04T22:09:11.098Z,12.77
2022-12-04T22:11:41.344Z,12.40
2022-12-04T22:14:08.845Z,16.83
2022-12-04T22:16:41.233Z,11.95
2022-12-04T22:19:08.572Z,15.90
2022-12-04T22:21:35.167Z,13.32
2022-12-04T22:24:03.553Z,12.25
2022-12-04T22:26:31.613Z,12.32
2022-12-04T22:28:58.422Z,12.73
2022-12-04T22:31:26.939Z,13.60
2022-12-04T22:33:55.466Z,10.85
2022-12-04T22:36:26.267Z,13.52
2022-12-04T22:39:08.842Z,10.15
2022-12-04T22:41:36.225Z,12.55
2022-12-04T22:44:02.867Z,12.00
2022-12-04T22:46:29.716Z,9.68
2022-12-04T22:48:56.322Z,11.35
2022-12-04T22:51:22.969Z,12.35
2022-12-04T22:53:52.337Z,10.00
2022-12-04T22:56:29.671Z,14.57
2022-12-04T22:58:57.951Z,13.35
2022-12-04T23:01:26.019Z,9.73
2022-12-04T23:03:53.732Z,12.50
2022-12-04T23:06:22.115Z,8.90
2022-12-04T23:08:49.497Z,12.27
2022-12-04T23:11:21.169Z,14.40
2022-12-04T23:13:52.505Z,11.85
2022-12-04T23:16:20.747Z,13.80
2022-12-04T23:18:48.313Z,12.25
2022-12-04T23:21:16.398Z,13.13
2022-12-04T23:23:44.381Z,12.05
2022-12-04T23:26:15.012Z,14.88
2022-12-04T23:28:42.075Z,10.32
2022-12-04T23:31:09.006Z,13.52
2022-12-04T23:33:35.693Z,14.35
2022-12-04T23:36:03.668Z,9.70
2022-12-04T23:38:30.490Z,12.95
2022-12-04T23:41:26.778Z,11.25
2022-12-04T23:43:55.001Z,9.00
2022-12-04T23:46:25.875Z,10.32
2022-12-04T23:48:52.483Z,11.02
2022-12-04T23:51:19.995Z,9.68
2022-12-04T23:53:47.845Z,11.15
2022-12-04T23:56:20.986Z,9.10
2022-12-04T23:58:49.288Z,9.25
